Time;durP1;ratioP1;P1;durP2;ratioP2;P2;SDS_P1;SDS_P2;PMS_P1;PMS_P2;Temp;Humidity;BMP_temperature;BMP_pressure;BME280_temperature;BME280_humidity;BME280_pressure;Samples;Min_cycle;Max_cycle;Signal;HPM_P1;HPM_P2
2023/10/03 00:00:54;;;;;;;;;1.25;1.25;;;;;-143.90;100.00;75461.66;4968170;28;102056;-76
2023/10/03 00:03:22;;;;;;;;;1.00;1.00;;;;;-143.90;100.00;75453.41;4964302;28;101943;-76
2023/10/03 00:05:51;;;;;;;;;1.00;1.00;;;;;-143.90;100.00;75449.25;4965379;28;102395;-76
2023/10/03 00:08:18;;;;;;;;;2.25;1.75;;;;;-143.90;100.00;75445.13;4968843;28;108760;-75
2023/10/03 00:10:45;;;;;;;;;0.00;0.00;;;;;-143.90;100.00;75449.25;4967550;28;102036;-76
2023/10/03 00:13:12;;;;;;;;;3.00;3.00;;;;;-143.90;100.00;75445.13;4970001;28;102253;-76
2023/10/03 00:15:43;;;;;;;;;2.00;1.00;;;;;-143.90;100.00;75445.13;4980676;28;102123;-76
2023/10/03 00:18:14;;;;;;;;;0.75;0.00;;;;;-143.90;100.00;75441.00;4982249;28;102467;-76
2023/10/03 00:20:42;;;;;;;;;1.00;1.00;;;;;-143.90;100.00;75432.72;4978832;28;101585;-77
2023/10/03 00:23:10;;;;;;;;;1.75;0.25;;;;;-143.90;100.00;75436.84;4980274;28;101585;-75
2023/10/03 00:25:38;;;;;;;;;0.50;0.50;;;;;-143.90;100.00;75428.59;4980996;28;101926;-76
2023/10/03 00:28:06;;;;;;;;;2.00;1.25;;;;;-143.90;100.00;75430.66;4978498;27;103429;-75
2023/10/03 00:30:35;;;;;;;;;2.75;2.75;;;;;-143.90;100.00;75428.59;4978731;28;101839;-75
2023/10/03 00:33:04;;;;;;;;;4.50;2.00;;;;;-143.90;100.00;75432.72;4979796;28;103225;-76
2023/10/03 00:35:32;;;;;;;;;3.00;3.00;;;;;-143.90;100.00;75426.50;4976377;28;101634;-76
2023/10/03 00:38:00;;;;;;;;;2.75;2.75;;;;;-143.90;100.00;75412.03;4977640;28;103763;-76
2023/10/03 00:40:31;;;;;;;;;1.50;1.50;;;;;-143.90;100.00;75407.91;4977310;28;102939;-76
2023/10/03 00:42:59;;;;;;;;;2.00;1.25;;;;;-143.90;100.00;75403.78;4980951;28;102953;-76
2023/10/03 00:45:29;;;;;;;;;1.75;1.75;;;;;-143.90;100.00;75407.91;4961027;28;102408;-76
2023/10/03 00:48:01;;;;;;;;;1.75;1.25;;;;;-143.90;100.00;75399.63;4977226;28;102582;-76
2023/10/03 00:50:31;;;;;;;;;1.00;1.00;;;;;-143.90;100.00;75412.03;4979568;28;101693;-76
2023/10/03 00:53:04;;;;;;;;;1.00;1.00;;;;;-143.90;100.00;75414.13;4963872;28;102863;-77
2023/10/03 00:55:33;;;;;;;;;1.00;1.00;;;;;-143.90;100.00;75403.78;4980360;28;102068;-77
2023/10/03 00:58:18;;;;;;;;;1.00;1.00;;;;;-143.90;100.00;75416.19;4978951;28;103333;-76
2023/10/03 01:00:54;;;;;;;;;2.00;2.00;;;;;-143.90;100.00;75426.50;4974282;28;102025;-76
2023/10/03 01:03:39;;;;;;;;;1.00;1.00;;;;;-143.90;100.00;75424.44;4973147;28;101557;-77
2023/10/03 01:06:12;;;;;;;;;0.00;0.00;;;;;-143.90;100.00;75432.72;4977883;28;101896;-76
2023/10/03 01:08:42;;;;;;;;;0.00;0.00;;;;;-143.90;100.00;75434.78;4975220;28;103194;-76
2023/10/03 01:11:17;;;;;;;;;1.00;1.00;;;;;-143.90;100.00;75422.38;4974134;28;102655;-75
2023/10/03 01:13:49;;;;;;;;;2.50;2.00;;;;;-143.90;100.00;75432.72;4977318;28;101888;-77
2023/10/03 01:16:36;;;;;;;;;1.00;1.00;;;;;-143.90;100.00;75428.59;4976851;28;101881;-75
2023/10/03 01:19:29;;;;;;;;;1.50;1.00;;;;;-143.90;100.00;75432.72;4979920;28;108038;-75
2023/10/03 01:21:51;;;;;;;;;2.00;2.00;;;;;-143.90;100.00;75432.72;4975948;28;102855;-76
2023/10/03 01:24:24;;;;;;;;;1.00;1.00;;;;;-143.90;100.00;75443.06;4984860;28;101545;-76
2023/10/03 01:26:53;;;;;;;;;3.50;2.00;;;;;-143.90;100.00;75434.78;4977657;28;101997;-76
2023/10/03 01:29:20;;;;;;;;;1.50;1.50;;;;;-143.90;100.00;75453.41;4980705;28;103307;-76
2023/10/03 01:31:48;;;;;;;;;4.00;3.00;;;;;-143.90;100.00;75445.13;4981724;28;103393;-76
2023/10/03 01:34:15;;;;;;;;;0.00;0.00;;;;;-143.90;100.00;75449.25;4977745;28;102125;-76
2023/10/03 01:36:45;;;;;;;;;3.00;3.00;;;;;-143.90;100.00;75465.81;4978041;28;101829;-76
2023/10/03 01:39:12;;;;;;;;;3.50;2.75;;;;;-143.90;100.00;75478.22;4976598;28;104797;-76
2023/10/03 01:41:40;;;;;;;;;3.75;3.00;;;;;-143.90;100.00;75478.22;4981946;28;101570;-76
2023/10/03 01:44:08;;;;;;;;;3.25;2.75;;;;;-143.90;100.00;75480.28;4979428;28;101923;-75
2023/10/03 01:46:35;;;;;;;;;2.25;2.00;;;;;-143.90;100.00;75478.22;4977954;28;101979;-76
2023/10/03 01:49:02;;;;;;;;;1.25;1.25;;;;;-143.90;100.00;75490.63;4980142;28;102429;-75
2023/10/03 01:51:29;;;;;;;;;2.75;2.75;;;;;-143.90;100.00;75507.16;4975847;28;101881;-76
2023/10/03 01:53:57;;;;;;;;;2.00;1.50;;;;;-143.90;100.00;75494.75;4979344;28;101804;-76
2023/10/03 01:56:24;;;;;;;;;3.00;3.00;;;;;-143.90;100.00;75494.75;4977985;28;101594;-75
2023/10/03 01:58:53;;;;;;;;;4.00;4.00;;;;;-143.90;100.00;75490.63;4976357;28;103310;-75
2023/10/03 02:01:21;;;;;;;;;4.50;3.50;;;;;-143.90;100.00;75492.69;4982237;28;102322;-76
2023/10/03 02:03:49;;;;;;;;;4.25;3.00;;;;;-143.90;100.00;75492.69;4978837;27;102237;-76
2023/10/03 02:06:16;;;;;;;;;5.25;5.25;;;;;-143.90;100.00;75507.16;4981761;28;101635;-75
2023/10/03 02:08:43;;;;;;;;;9.75;8.75;;;;;-143.90;100.00;75503.03;4978755;28;102409;-76
2023/10/03 02:11:12;;;;;;;;;15.25;14.25;;;;;-143.90;100.00;75496.81;4982195;28;102952;-76
2023/10/03 02:13:40;;;;;;;;;6.75;5.50;;;;;-143.90;100.00;75498.88;4984244;28;101980;-76
2023/10/03 02:16:10;;;;;;;;;12.75;9.00;;;;;-143.90;100.00;75503.03;4979200;28;101931;-76
2023/10/03 02:18:37;;;;;;;;;11.00;9.00;;;;;-143.90;100.00;75500.94;4979256;28;103624;-76
2023/10/03 02:21:04;;;;;;;;;9.50;8.00;;;;;-143.90;100.00;75507.16;4979595;28;101905;-76
2023/10/03 02:23:32;;;;;;;;;6.50;4.00;;;;;-143.90;100.00;75513.34;4976965;28;101947;-76
2023/10/03 02:26:07;;;;;;;;;8.25;6.00;;;;;-143.90;100.00;75505.09;4978082;28;102058;-76
2023/10/03 02:28:34;;;;;;;;;6.00;5.50;;;;;-143.90;100.00;75498.88;4976278;28;103601;-76
2023/10/03 02:31:07;;;;;;;;;6.00;5.00;;;;;-143.90;100.00;75503.03;4985720;28;101661;-76
2023/10/03 02:33:42;;;;;;;;;7.50;6.00;;;;;-143.90;100.00;75500.94;4985365;28;101677;-76
2023/10/03 02:36:10;;;;;;;;;5.00;5.00;;;;;-143.90;100.00;75503.03;4985795;28;101479;-75
2023/10/03 02:38:37;;;;;;;;;7.50;6.00;;;;;-143.90;100.00;75498.88;4983277;28;104839;-76
2023/10/03 02:41:10;;;;;;;;;4.25;3.50;;;;;-143.90;100.00;75496.81;4982268;28;102965;-76
2023/10/03 02:43:43;;;;;;;;;5.25;4.25;;;;;-143.90;100.00;75498.88;4984281;28;102085;-76
2023/10/03 02:46:13;;;;;;;;;5.25;5.00;;;;;-143.90;100.00;75494.75;4983957;28;102650;-76
2023/10/03 02:48:41;;;;;;;;;4.50;3.50;;;;;-143.90;100.00;75494.75;4983098;28;103460;-76
2023/10/03 02:51:09;;;;;;;;;4.25;4.25;;;;;-143.90;100.00;75494.75;4980981;28;101864;-76
2023/10/03 02:53:36;;;;;;;;;2.75;2.00;;;;;-143.90;100.00;75498.88;4983618;28;101983;-75
2023/10/03 02:56:04;;;;;;;;;5.75;5.75;;;;;-143.90;100.00;75511.28;4981717;28;102022;-76
2023/10/03 02:58:30;;;;;;;;;6.00;6.00;;;;;-143.90;100.00;75498.88;4981683;28;104378;-76
2023/10/03 03:00:57;;;;;;;;;5.00;5.00;;;;;-143.90;100.00;75494.75;4981181;28;101537;-75
2023/10/03 03:03:30;;;;;;;;;5.75;5.75;;;;;-143.90;100.00;75490.63;4980847;28;101519;-75
2023/10/03 03:06:03;;;;;;;;;5.25;4.00;;;;;-143.90;100.00;75492.69;4980262;28;101603;-76
2023/10/03 03:08:30;;;;;;;;;5.00;4.00;;;;;-143.90;100.00;75490.63;4977116;28;103199;-76
2023/10/03 03:10:59;;;;;;;;;3.25;3.00;;;;;-143.90;100.00;75498.88;4979679;28;101521;-76
2023/10/03 03:13:35;;;;;;;;;3.25;3.00;;;;;-143.90;100.00;75492.69;4984575;28;103044;-77
2023/10/03 03:16:06;;;;;;;;;2.00;2.00;;;;;-143.90;100.00;75498.88;4982372;28;106514;-76
2023/10/03 03:18:41;;;;;;;;;3.00;3.00;;;;;-143.90;100.00;75490.63;4984045;28;103449;-76
2023/10/03 03:21:13;;;;;;;;;5.00;4.00;;;;;-143.90;100.00;75490.63;4985121;28;101522;-76
2023/10/03 03:23:43;;;;;;;;;3.00;3.00;;;;;-143.90;100.00;75492.69;4998102;28;102367;-77
2023/10/03 03:26:21;;;;;;;;;3.00;2.50;;;;;-143.90;100.00;75494.75;4980227;28;102016;-77
2023/10/03 03:28:51;;;;;;;;;3.00;2.75;;;;;-143.90;100.00;75492.69;4984790;28;108996;-77
2023/10/03 03:31:32;;;;;;;;;3.00;2.75;;;;;-143.90;100.00;75492.69;4982372;28;102008;-76
2023/10/03 03:34:02;;;;;;;;;3.00;1.75;;;;;-143.90;100.00;75500.94;4974567;28;101598;-76
2023/10/03 03:36:30;;;;;;;;;5.25;5.25;;;;;-143.90;100.00;75498.88;4984958;28;101807;-76
2023/10/03 03:39:05;;;;;;;;;3.75;3.00;;;;;-143.90;100.00;75496.81;4983015;28;103640;-76
2023/10/03 03:41:34;;;;;;;;;4.00;3.00;;;;;-143.90;100.00;75488.53;4977745;28;101990;-76
2023/10/03 03:44:01;;;;;;;;;5.25;4.00;;;;;-143.90;100.00;75503.03;4973415;28;101895;-76
2023/10/03 03:46:29;;;;;;;;;5.00;3.50;;;;;-143.90;100.00;75503.03;4976413;28;101594;-76
2023/10/03 03:48:58;;;;;;;;;5.25;4.25;;;;;-143.90;100.00;75515.41;4976724;28;103921;-76
2023/10/03 03:51:25;;;;;;;;;4.50;4.50;;;;;-143.90;100.00;75500.94;4973397;28;102434;-76
2023/10/03 03:53:52;;;;;;;;;9.25;5.00;;;;;-143.90;100.00;75509.22;4978421;28;103288;-77
2023/10/03 03:56:20;;;;;;;;;4.00;4.00;;;;;-143.90;100.00;75500.94;4978168;28;103141;-76
2023/10/03 03:58:48;;;;;;;;;8.75;7.00;;;;;-143.90;100.00;75498.88;4970491;28;103225;-76
2023/10/03 04:01:19;;;;;;;;;5.50;5.00;;;;;-143.90;100.00;75494.75;4974673;28;101607;-76
2023/10/03 04:03:51;;;;;;;;;4.50;3.75;;;;;-143.90;100.00;75480.28;4976894;28;102581;-76
2023/10/03 04:06:21;;;;;;;;;4.75;4.25;;;;;-143.90;100.00;75486.47;4974443;28;101808;-76
2023/10/03 04:08:48;;;;;;;;;4.75;4.00;;;;;-143.90;100.00;75486.47;4978891;28;102348;-77
2023/10/03 04:11:19;;;;;;;;;3.00;3.00;;;;;-143.90;100.00;75490.63;4973563;28;102005;-76
2023/10/03 04:13:55;;;;;;;;;8.00;4.50;;;;;-143.90;100.00;75488.53;4976336;28;101994;-76
2023/10/03 04:16:26;;;;;;;;;4.50;4.00;;;;;-143.90;100.00;75488.53;4979364;28;101852;-77
2023/10/03 04:18:53;;;;;;;;;4.00;3.75;;;;;-143.90;100.00;75494.75;4978898;28;109637;-76
2023/10/03 04:21:20;;;;;;;;;5.00;5.00;;;;;-143.90;100.00;75498.88;4978518;28;102659;-77
2023/10/03 04:23:50;;;;;;;;;9.25;8.00;;;;;-143.90;100.00;75498.88;4977951;28;101581;-75
2023/10/03 04:26:17;;;;;;;;;6.75;6.75;;;;;-143.90;100.00;75511.28;4983083;28;102845;-76
2023/10/03 04:28:43;;;;;;;;;7.00;6.00;;;;;-143.90;100.00;75505.09;4974387;28;103740;-76
2023/10/03 04:31:10;;;;;;;;;6.75;6.50;;;;;-143.90;100.00;75492.69;4975437;28;101683;-76
2023/10/03 04:33:37;;;;;;;;;5.25;5.25;;;;;-143.90;100.00;75480.28;4976510;28;102115;-76
2023/10/03 04:36:05;;;;;;;;;5.25;5.00;;;;;-143.90;100.00;75488.53;4978569;28;103352;-76
2023/10/03 04:38:32;;;;;;;;;4.25;4.25;;;;;-143.90;100.00;75509.22;4976931;28;103038;-75
2023/10/03 04:41:02;;;;;;;;;3.00;3.00;;;;;-143.90;100.00;75503.03;4983596;28;101866;-76
2023/10/03 04:43:31;;;;;;;;;2.00;2.00;;;;;-143.90;100.00;75494.75;4963554;28;102188;-76
2023/10/03 04:45:58;;;;;;;;;6.25;4.50;;;;;-143.90;100.00;75500.94;4952869;28;109251;-76
2023/10/03 04:48:25;;;;;;;;;5.00;4.00;;;;;-143.90;100.00;75513.34;4969003;28;102977;-76
2023/10/03 04:50:51;;;;;;;;;6.25;4.00;;;;;-143.90;100.00;75519.56;4965345;28;102090;-75
2023/10/03 04:53:18;;;;;;;;;5.00;4.00;;;;;-143.90;100.00;75507.16;4964337;28;102040;-76
2023/10/03 04:55:48;;;;;;;;;6.00;5.00;;;;;-143.90;100.00;75515.41;4958931;28;102461;-75
2023/10/03 04:58:15;;;;;;;;;4.00;3.75;;;;;-143.90;100.00;75503.03;4965049;28;102963;-75
2023/10/03 05:00:45;;;;;;;;;5.50;5.25;;;;;-143.90;100.00;75503.03;4968394;28;102690;-75
2023/10/03 05:03:13;;;;;;;;;4.25;4.25;;;;;-143.90;100.00;75503.03;4964365;28;101982;-76
2023/10/03 05:05:40;;;;;;;;;4.00;4.00;;;;;-143.90;100.00;75507.16;4966523;28;102775;-76
2023/10/03 05:08:07;;;;;;;;;4.25;3.25;;;;;-143.90;100.00;75517.50;4961392;28;103993;-76
2023/10/03 05:10:36;;;;;;;;;3.00;3.00;;;;;-143.90;100.00;75509.22;4965667;28;102607;-76
2023/10/03 05:13:05;;;;;;;;;3.50;3.00;;;;;-143.90;100.00;75507.16;4967331;28;102224;-76
2023/10/03 05:15:32;;;;;;;;;3.75;3.75;;;;;-143.90;100.00;75507.16;4959738;28;102360;-75
2023/10/03 05:18:00;;;;;;;;;5.00;4.00;;;;;-143.90;100.00;75515.41;4962603;28;105220;-76
2023/10/03 05:20:45;;;;;;;;;3.50;3.25;;;;;-143.90;100.00;75498.88;4970341;28;102218;-75
2023/10/03 05:23:14;;;;;;;;;2.75;2.75;;;;;-143.90;100.00;75503.03;4962647;28;102387;-75
2023/10/03 05:25:44;;;;;;;;;2.25;1.50;;;;;-143.90;100.00;75494.75;4967700;28;102385;-75
2023/10/03 05:28:13;;;;;;;;;2.75;2.75;;;;;-143.90;100.00;75490.63;4980189;28;103685;-75
2023/10/03 05:30:40;;;;;;;;;2.00;1.00;;;;;-143.90;100.00;75486.47;4967316;28;102181;-75
2023/10/03 05:33:08;;;;;;;;;1.00;1.00;;;;;-143.90;100.00;75490.63;4965909;28;102672;-75
2023/10/03 05:35:35;;;;;;;;;2.00;1.50;;;;;-143.90;100.00;75486.47;4968573;28;102396;-75
2023/10/03 05:38:08;;;;;;;;;1.50;1.50;;;;;-143.90;100.00;75476.13;4964337;28;104024;-75
2023/10/03 05:40:35;;;;;;;;;2.75;2.75;;;;;-143.90;100.00;75472.00;4965239;28;101940;-75
2023/10/03 05:43:04;;;;;;;;;2.00;1.75;;;;;-143.90;100.00;75474.06;4963341;28;101944;-76
2023/10/03 05:45:37;;;;;;;;;4.00;3.50;;;;;-143.90;100.00;75457.53;4965536;28;102138;-76
2023/10/03 05:48:04;;;;;;;;;7.75;4.75;;;;;-143.90;100.00;75445.13;4961973;28;107389;-76
2023/10/03 05:50:33;;;;;;;;;3.75;3.75;;;;;-143.90;100.00;75426.50;4965738;28;102399;-76
2023/10/03 05:53:00;;;;;;;;;3.00;3.00;;;;;-143.90;100.00;75424.44;4962095;28;101913;-77
2023/10/03 05:55:27;;;;;;;;;3.50;3.50;;;;;-143.90;100.00;75407.91;4966824;28;102449;-75
2023/10/03 05:57:55;;;;;;;;;8.75;5.50;;;;;-143.90;100.00;75412.03;4962651;28;109494;-75
2023/10/03 06:00:22;;;;;;;;;8.00;5.00;;;;;-143.90;100.00;75399.63;4969179;28;102077;-77
2023/10/03 06:02:50;;;;;;;;;5.00;4.75;;;;;-143.90;100.00;75383.09;4964629;28;102341;-77
2023/10/03 06:05:17;;;;;;;;;4.00;4.00;;;;;-143.90;100.00;75370.69;4968679;28;102656;-76
2023/10/03 06:07:45;;;;;;;;;3.75;3.75;;;;;-143.90;100.00;75362.44;4968321;28;103558;-77
2023/10/03 06:10:16;;;;;;;;;9.00;8.00;;;;;-143.90;100.00;75356.22;4968992;28;102391;-77
2023/10/03 06:12:44;;;;;;;;;8.00;6.50;;;;;-143.90;100.00;75341.75;4968538;28;102483;-75
2023/10/03 06:15:12;;;;;;;;;10.00;8.50;;;;;-143.90;100.00;75327.28;4966180;28;102004;-76
2023/10/03 06:17:40;;;;;;;;;4.25;4.00;;;;;-143.90;100.00;75312.81;4965592;28;104072;-76
2023/10/03 06:20:11;;;;;;;;;6.00;4.50;;;;;-143.90;100.00;75298.34;4969631;28;102370;-76
2023/10/03 06:22:39;;;;;;;;;3.75;3.00;;;;;-143.90;100.00;75279.72;4966916;28;102225;-76
2023/10/03 06:25:07;;;;;;;;;7.50;5.50;;;;;-143.90;100.00;75271.47;4969487;28;102343;-76
2023/10/03 06:27:34;;;;;;;;;7.75;7.75;;;;;-143.90;100.00;75265.25;4981873;28;104022;-76
2023/10/03 06:30:01;;;;;;;;;11.00;9.50;;;;;-143.90;100.00;75238.38;4964382;28;102031;-76
2023/10/03 06:32:28;;;;;;;;;9.25;9.25;;;;;-143.90;100.00;75221.84;4971434;28;102203;-76
2023/10/03 06:34:55;;;;;;;;;7.25;6.25;;;;;-143.90;100.00;75194.97;4965351;28;102408;-76
2023/10/03 06:37:23;;;;;;;;;4.75;4.75;;;;;-143.90;100.00;75184.63;4965875;28;104021;-75
2023/10/03 06:39:50;;;;;;;;;3.50;3.00;;;;;-143.90;100.00;75157.75;4967428;28;102130;-76
2023/10/03 06:42:18;;;;;;;;;5.75;4.00;;;;;-143.90;100.00;75130.88;4967021;28;102043;-76
2023/10/03 06:44:45;;;;;;;;;3.00;3.00;;;;;-143.90;100.00;75106.06;4966601;28;102172;-76
2023/10/03 06:47:12;;;;;;;;;3.00;2.00;;;;;-143.90;100.00;75085.38;4960361;28;103722;-76
2023/10/03 06:49:39;;;;;;;;;4.00;3.00;;;;;-143.90;100.00;75060.59;4968536;28;102951;-76
2023/10/03 06:52:06;;;;;;;;;3.00;2.25;;;;;-143.90;100.00;75039.91;4965797;28;102313;-77
2023/10/03 06:54:33;;;;;;;;;1.75;1.75;;;;;-143.90;100.00;75019.22;4965990;28;102446;-76
2023/10/03 06:57:00;;;;;;;;;1.75;1.75;;;;;-143.90;100.00;75006.84;4961632;28;104038;-75
2023/10/03 06:59:27;;;;;;;;;3.75;2.00;;;;;-143.90;100.00;74979.97;4968693;28;101932;-76
2023/10/03 07:01:53;;;;;;;;;3.00;3.00;;;;;-143.90;100.00;74963.41;4965465;28;103180;-77
2023/10/03 07:04:20;;;;;;;;;1.00;1.00;;;;;-143.90;100.00;74936.53;4968609;28;102389;-77
2023/10/03 07:06:50;;;;;;;;;2.50;1.00;;;;;-143.90;100.00;74907.59;4974574;28;103992;-77
2023/10/03 07:09:17;;;;;;;;;3.00;2.00;;;;;-143.90;100.00;74897.25;4970103;28;102206;-75
2023/10/03 07:11:47;;;;;;;;;1.67;1.00;;;;;-143.90;100.00;74874.53;4964344;28;104137;-76
2023/10/03 07:14:15;;;;;;;;;1.00;1.00;;;;;-143.90;100.00;74853.84;4953576;28;103600;-77
2023/10/03 07:16:44;;;;;;;;;0.00;0.00;;;;;-143.90;100.00;74824.91;4968342;28;103100;-76
2023/10/03 07:19:13;;;;;;;;;1.00;1.00;;;;;-143.90;100.00;74800.09;4964744;28;102032;-76
2023/10/03 07:21:43;;;;;;;;;2.00;1.67;;;;;-143.90;100.00;74781.50;4963375;28;102266;-77
2023/10/03 07:24:10;;;;;;;;;3.00;1.67;;;;;-143.90;100.00;74756.69;4965316;28;102351;-77
2023/10/03 07:26:37;;;;;;;;;1.33;1.00;;;;;-143.90;100.00;74738.09;4965743;28;103703;-77
2023/10/03 07:29:04;;;;;;;;;2.67;2.00;;;;;-143.90;100.00;74709.16;4973358;28;102057;-77
2023/10/03 07:31:32;;;;;;;;;0.00;0.00;;;;;-143.90;100.00;74690.53;4974302;28;102030;-77
2023/10/03 07:33:59;;;;;;;;;2.00;1.67;;;;;-143.90;100.00;74682.28;4959917;28;102269;-76
2023/10/03 07:36:27;;;;;;;;;0.00;0.00;;;;;-143.90;100.00;74651.28;4966697;28;103463;-76
2023/10/03 07:38:54;;;;;;;;;2.00;1.00;;;;;-143.90;99.12;74630.59;4981694;28;102352;-76
2023/10/03 07:41:21;;;;;;;;;2.00;2.00;;;;;-143.90;98.26;74603.72;4967262;28;102300;-76
2023/10/03 07:43:49;;;;;;;;;3.00;2.33;;;;;-143.90;91.68;74585.13;4973629;28;102386;-77
2023/10/03 07:46:24;;;;;;;;;2.00;2.00;;;;;-143.90;93.21;74556.19;4979409;28;104134;-76
2023/10/03 07:48:52;;;;;;;;;3.00;2.00;;;;;-143.90;93.16;74531.38;4969517;28;102098;-76
2023/10/03 07:51:26;;;;;;;;;2.67;2.67;;;;;-143.90;91.56;74518.97;4964943;28;102021;-77
2023/10/03 07:53:55;;;;;;;;;2.00;2.00;;;;;-143.90;90.05;74502.44;4968991;28;102165;-76
2023/10/03 07:56:30;;;;;;;;;3.33;2.67;;;;;-143.90;90.06;74487.97;4968688;28;102927;-76
2023/10/03 07:59:02;;;;;;;;;3.33;3.00;;;;;-143.90;88.66;74487.97;4968366;28;102813;-76
2023/10/03 08:01:31;;;;;;;;;4.00;3.00;;;;;-143.90;87.91;74465.22;4964990;28;102976;-76
2023/10/03 08:04:14;;;;;;;;;3.00;3.00;;;;;-143.90;85.99;74448.69;4913767;28;103417;-76
2023/10/03 08:06:42;;;;;;;;;4.00;4.00;;;;;-143.90;85.07;74440.44;4957051;28;103309;-76
2023/10/03 08:09:11;;;;;;;;;4.00;4.00;;;;;-143.90;86.88;74413.56;4962532;28;102407;-76
2023/10/03 08:11:38;;;;;;;;;3.33;3.33;;;;;-143.90;87.19;74403.22;4968686;28;102339;-76
2023/10/03 08:14:13;;;;;;;;;4.00;3.00;;;;;-143.90;87.04;74394.94;4966934;28;105098;-76
2023/10/03 08:16:41;;;;;;;;;3.00;3.00;;;;;-143.90;86.47;74378.41;4965265;28;107711;-76
2023/10/03 08:19:09;;;;;;;;;2.00;2.00;;;;;-143.90;84.16;74361.88;4963072;28;102400;-76
2023/10/03 08:21:36;;;;;;;;;2.00;2.00;;;;;-143.90;86.48;74345.34;4967303;28;102215;-75
2023/10/03 08:24:09;;;;;;;;;4.00;2.00;;;;;-143.90;83.72;74324.69;4969343;28;102683;-75
2023/10/03 08:26:37;;;;;;;;;3.00;3.00;;;;;-143.90;84.73;74316.41;4963238;28;109870;-75
2023/10/03 08:29:04;;;;;;;;;2.00;2.00;;;;;-143.90;83.15;74301.94;4969613;28;103070;-75
2023/10/03 08:31:32;;;;;;;;;4.00;3.00;;;;;-143.90;83.33;74277.13;4971513;28;102107;-75
2023/10/03 08:34:00;;;;;;;;;3.67;2.67;;;;;-143.90;83.26;74270.94;4966736;28;102177;-75
2023/10/03 08:36:28;;;;;;;;;5.67;5.00;;;;;-143.90;82.92;74262.66;4961669;28;104033;-75
2023/10/03 08:39:05;;;;;;;;;3.00;3.00;;;;;-143.90;83.18;74242.00;4963629;28;104043;-75
2023/10/03 08:41:45;;;;;;;;;4.00;3.00;;;;;-143.90;81.92;74225.47;4969066;28;102243;-75
2023/10/03 08:44:13;;;;;;;;;2.33;1.67;;;;;-143.90;80.40;74200.66;4966949;28;102060;-75
2023/10/03 08:46:48;;;;;;;;;3.00;3.00;;;;;-143.90;78.72;74192.41;4967445;28;105700;-75
2023/10/03 08:49:19;;;;;;;;;3.33;3.00;;;;;-143.90;79.05;74180.00;4963302;28;102729;-75
2023/10/03 08:51:46;;;;;;;;;3.33;3.00;;;;;-143.90;78.55;74165.53;4967373;28;102554;-76
2023/10/03 08:54:13;;;;;;;;;5.00;4.00;;;;;-143.90;77.26;74169.66;4964169;28;102213;-75
2023/10/03 08:56:41;;;;;;;;;3.00;3.00;;;;;-143.90;74.60;74151.06;4982468;28;104326;-76
2023/10/03 08:59:09;;;;;;;;;7.00;5.00;;;;;-143.90;77.54;74140.72;4966780;27;102526;-76
2023/10/03 09:01:45;;;;;;;;;4.00;4.00;;;;;-143.90;74.81;74126.25;4965671;28;102255;-76
2023/10/03 09:04:16;;;;;;;;;3.00;3.00;;;;;-143.90;75.79;74105.59;4964549;28;102398;-76
2023/10/03 09:06:44;;;;;;;;;3.33;3.33;;;;;-143.90;74.54;74095.25;4966497;28;103947;-76
2023/10/03 09:09:16;;;;;;;;;2.00;2.00;;;;;-143.90;73.84;74078.72;4958674;28;103143;-76
2023/10/03 09:11:50;;;;;;;;;5.67;3.67;;;;;-143.90;75.16;74062.19;4966544;28;103472;-76
2023/10/03 09:14:21;;;;;;;;;3.33;3.33;;;;;-143.90;74.07;74043.59;4981059;28;101968;-76
2023/10/03 09:16:50;;;;;;;;;4.00;3.00;;;;;-143.90;74.03;74039.44;4964305;28;105362;-75
2023/10/03 09:19:23;;;;;;;;;3.00;3.00;;;;;-143.90;75.68;74018.78;4970277;28;102009;-75
2023/10/03 09:21:54;;;;;;;;;2.00;2.00;;;;;-143.90;72.17;74004.31;4961580;28;105063;-75
2023/10/03 09:24:22;;;;;;;;;3.33;2.33;;;;;-143.90;74.10;73985.72;4967007;28;102025;-75
2023/10/03 09:27:07;;;;;;;;;2.00;2.00;;;;;-143.90;74.52;73975.38;4983405;28;103758;-76
2023/10/03 09:29:34;;;;;;;;;6.00;5.33;;;;;-143.90;71.53;73973.31;4966935;28;102138;-76
2023/10/03 09:32:24;;;;;;;;;4.00;4.00;;;;;-143.90;67.53;73956.78;4965926;28;102026;-75
2023/10/03 09:34:58;;;;;;;;;2.00;1.00;;;;;-143.90;68.56;73950.56;4969900;28;102950;-75
2023/10/03 09:37:29;;;;;;;;;5.67;5.00;;;;;-143.90;69.84;73936.09;4981737;28;104097;-75
2023/10/03 09:40:01;;;;;;;;;4.00;4.00;;;;;-143.90;68.52;73936.09;4966301;28;102463;-75
2023/10/03 09:42:32;;;;;;;;;5.67;5.00;;;;;-143.90;67.18;73927.84;4965461;28;102930;-74
2023/10/03 09:44:59;;;;;;;;;4.33;4.33;;;;;-143.90;69.79;73911.31;4964143;28;102045;-75
2023/10/03 09:47:34;;;;;;;;;6.67;5.00;;;;;-143.90;65.29;73907.16;4985396;28;103801;-75
2023/10/03 09:50:08;;;;;;;;;6.00;5.00;;;;;-143.90;69.00;73886.50;4965605;28;102355;-75
2023/10/03 09:52:38;;;;;;;;;6.67;5.00;;;;;-143.90;65.80;73874.09;4964980;28;102075;-75
2023/10/03 09:55:21;;;;;;;;;5.00;5.00;;;;;-143.90;66.57;73869.97;4967833;28;102094;-75
2023/10/03 09:57:54;;;;;;;;;5.67;5.33;;;;;-143.90;67.80;73853.44;4969351;28;108184;-76
2023/10/03 10:03:36;;;;;;;;;5.00;5.00;;;;;-143.90;65.17;73820.38;4929357;28;102173;-75
2023/10/03 10:06:12;;;;;;;;;5.00;5.00;;;;;-143.90;64.93;73812.09;4932676;28;102157;-75
2023/10/03 10:09:13;;;;;;;;;5.33;5.00;;;;;-143.90;63.60;73795.56;4951076;28;108765;-75
2023/10/03 10:12:12;;;;;;;;;4.00;4.00;;;;;-143.90;63.51;73791.44;4963971;28;102272;-75
2023/10/03 10:15:13;;;;;;;;;5.67;5.33;;;;;-143.90;64.40;73787.31;4969418;28;102494;-75
2023/10/03 10:17:51;;;;;;;;;9.00;8.67;;;;;-143.90;62.67;73791.44;4955878;28;102518;-75
2023/10/03 10:20:27;;;;;;;;;6.00;5.67;;;;;-143.90;60.07;73774.91;4963933;28;107824;-74
2023/10/03 10:22:58;;;;;;;;;6.00;5.00;;;;;-143.90;67.24;73743.91;4964154;28;102608;-75
2023/10/03 10:25:41;;;;;;;;;5.00;5.00;;;;;-143.90;61.34;73729.44;4966222;28;102414;-75
2023/10/03 10:28:11;;;;;;;;;6.33;5.67;;;;;-143.90;65.96;73721.16;4964934;28;102451;-75
2023/10/03 10:31:21;;;;;;;;;5.33;5.00;;;;;-143.90;61.75;73704.63;4962439;28;108700;-75
2023/10/03 10:33:57;;;;;;;;;7.67;6.33;;;;;-143.90;56.15;73694.31;4964061;28;102395;-75
2023/10/03 10:37:02;;;;;;;;;8.00;6.00;;;;;-143.90;53.62;73700.50;4966660;28;102385;-75
2023/10/03 10:39:54;;;;;;;;;11.00;8.00;;;;;-143.90;52.31;73694.31;4955721;28;102396;-75
2023/10/03 10:42:25;;;;;;;;;8.00;7.33;;;;;-143.90;52.04;73688.09;4968656;27;108663;-75
2023/10/03 10:45:09;;;;;;;;;8.00;7.33;;;;;-143.90;52.26;73675.69;4964387;28;102274;-76
2023/10/03 10:47:46;;;;;;;;;6.00;6.00;;;;;-143.90;54.90;73667.44;4966760;28;102708;-77
2023/10/03 10:50:13;;;;;;;;;8.00;7.33;;;;;-143.90;52.41;73667.44;4973299;28;102797;-75
2023/10/03 10:53:01;;;;;;;;;5.33;5.00;;;;;-143.90;52.04;73650.91;4968814;28;108888;-76
2023/10/03 10:55:29;;;;;;;;;4.33;4.33;;;;;-143.90;52.91;73634.38;4970112;28;102800;-76
2023/10/03 10:58:12;;;;;;;;;6.33;6.00;;;;;-143.90;50.41;73626.09;4972611;28;102038;-76
2023/10/03 11:00:40;;;;;;;;;7.67;5.00;;;;;-143.90;51.49;73621.97;4962031;28;102040;-74
2023/10/03 11:03:08;;;;;;;;;5.67;5.67;;;;;-143.90;51.53;73611.63;4969764;28;103990;-75
2023/10/03 11:05:46;;;;;;;;;5.33;5.00;;;;;-143.90;51.41;73599.25;4967717;28;102213;-75
2023/10/03 11:08:14;;;;;;;;;7.33;6.00;;;;;-143.90;51.61;73595.09;4961205;28;102579;-75
2023/10/03 11:10:52;;;;;;;;;6.33;5.67;;;;;-143.90;51.39;73576.50;4970975;28;102549;-75
2023/10/03 11:13:20;;;;;;;;;5.00;5.00;;;;;-143.90;51.30;73564.09;4981863;28;109729;-75
2023/10/03 11:15:50;;;;;;;;;5.00;4.00;;;;;-143.90;52.00;73559.97;4969655;28;103814;-75
2023/10/03 11:18:26;;;;;;;;;5.00;4.00;;;;;-143.90;50.37;73562.03;4962241;28;102214;-75
2023/10/03 11:20:55;;;;;;;;;6.00;5.33;;;;;-143.90;49.27;73572.38;4971019;27;102060;-75
2023/10/03 11:23:23;;;;;;;;;7.33;6.00;;;;;-143.90;48.76;73578.56;4966116;28;103267;-75